createdAt,value
2023-02-09T00:29:52.815Z,0
2023-02-09T00:30:33.307Z,0
2023-02-09T00:31:13.850Z,0
2023-02-09T00:36:37.660Z,0
2023-02-09T00:37:18.148Z,0
2023-02-09T00:37:58.640Z,0
2023-02-09T00:38:39.114Z,0
2023-02-09T00:39:19.608Z,0
2023-02-09T00:40:00.145Z,0
2023-02-09T00:40:40.601Z,0
2023-02-09T00:41:21.086Z,0
2023-02-09T00:42:01.568Z,0
2023-02-09T00:42:42.058Z,0
2023-02-09T00:51:40.532Z,0
2023-02-09T00:52:20.788Z,0
2023-02-09T00:53:01.315Z,0
2023-02-09T00:58:25.270Z,0
2023-02-09T00:59:05.735Z,0
2023-02-09T00:59:46.215Z,0
2023-02-09T01:00:26.712Z,0
2023-02-09T01:01:07.233Z,0
2023-02-09T01:01:47.642Z,0
2023-02-09T01:02:28.157Z,0
2023-02-09T01:03:08.667Z,0
2023-02-09T01:03:49.143Z,0
2023-02-09T01:04:29.636Z,0
2023-02-09T01:09:55.276Z,0
2023-02-09T01:10:35.764Z,0
2023-02-09T01:11:16.236Z,0
2023-02-09T01:11:56.703Z,0
2023-02-09T01:12:37.194Z,0
2023-02-09T01:13:17.730Z,0
2023-02-09T01:13:58.288Z,0
2023-02-09T01:14:38.720Z,0
2023-02-09T01:15:19.181Z,0
2023-02-09T01:23:25.048Z,0
2023-02-09T01:24:05.471Z,0
2023-02-09T01:24:45.973Z,0
2023-02-09T01:25:26.432Z,0
2023-02-09T01:26:06.915Z,0
2023-02-09T01:26:47.446Z,0
2023-02-09T01:27:27.906Z,0
2023-02-09T01:28:08.508Z,0
2023-02-09T01:28:48.873Z,0
2023-02-09T01:29:29.358Z,0
2023-02-09T01:30:09.807Z,0
2023-02-09T01:37:35.226Z,0
2023-02-09T01:38:15.727Z,0
2023-02-09T01:38:56.221Z,0
2023-02-09T01:39:36.702Z,0
2023-02-09T01:40:17.210Z,0
2023-02-09T01:40:57.692Z,0
2023-02-09T01:41:38.178Z,0
2023-02-09T01:42:18.674Z,0
2023-02-09T01:42:59.169Z,0
2023-02-09T01:43:39.680Z,0
2023-02-09T01:50:25.216Z,0
2023-02-09T01:51:05.701Z,0
2023-02-09T01:51:46.202Z,0
2023-02-09T01:52:26.693Z,0
2023-02-09T01:53:07.170Z,0
2023-02-09T01:53:47.724Z,0
2023-02-09T01:54:28.168Z,0
2023-02-09T01:55:08.653Z,0
2023-02-09T01:55:49.136Z,0
2023-02-09T01:56:29.652Z,0
2023-02-09T02:03:55.129Z,0
2023-02-09T02:04:35.594Z,0
2023-02-09T02:05:16.133Z,0
2023-02-09T02:05:56.596Z,0
2023-02-09T02:06:37.092Z,0
2023-02-09T02:07:17.565Z,0
2023-02-09T02:07:58.039Z,0
2023-02-09T02:08:38.521Z,0
2023-02-09T02:09:19.018Z,0
2023-02-09T02:09:59.504Z,0
2023-02-09T02:18:05.386Z,0
2023-02-09T02:18:45.824Z,0
2023-02-09T02:19:26.325Z,0
2023-02-09T02:20:06.798Z,0
2023-02-09T02:20:47.593Z,0
2023-02-09T02:21:27.816Z,0
2023-02-09T02:22:08.299Z,0
2023-02-09T02:22:48.756Z,0
2023-02-09T02:23:29.261Z,0
2023-02-09T02:24:09.714Z,0
2023-02-09T02:31:31.909Z,0
2023-02-09T02:32:12.270Z,0
2023-02-09T02:32:52.759Z,0
2023-02-09T02:38:16.639Z,0
2023-02-09T02:38:57.151Z,0
2023-02-09T02:39:37.631Z,0
2023-02-09T02:40:18.140Z,0
2023-02-09T02:40:58.619Z,0
2023-02-09T02:41:39.082Z,0
2023-02-09T02:42:19.583Z,0
2023-02-09T02:43:00.053Z,0
2023-02-09T02:44:20.975Z,0
2023-02-09T02:45:01.462Z,0
2023-02-09T02:51:06.863Z,0
2023-02-09T02:51:47.312Z,0
2023-02-09T02:52:27.805Z,0
2023-02-09T02:53:08.308Z,0
2023-02-09T02:53:48.808Z,0
2023-02-09T02:54:29.308Z,0
2023-02-09T02:55:09.763Z,0
2023-02-09T02:55:50.305Z,0
2023-02-09T02:58:23.322Z,0
2023-02-09T02:59:03.835Z,0
2023-02-09T02:59:44.328Z,0
2023-02-09T03:03:48.080Z,0
2023-02-09T03:04:28.624Z,0
2023-02-09T03:05:09.107Z,0
2023-02-09T03:05:49.570Z,0
2023-02-09T03:06:30.072Z,0
2023-02-09T03:07:10.631Z,0
2023-02-09T03:07:51.084Z,0
2023-02-09T03:08:31.589Z,0
2023-02-09T03:09:12.124Z,0
2023-02-09T03:09:52.569Z,0
2023-02-09T03:20:22.771Z,0
2023-02-09T03:21:03.115Z,0
2023-02-09T03:21:43.597Z,0
2023-02-09T03:27:07.480Z,0
2023-02-09T03:27:47.953Z,0
2023-02-09T03:28:28.565Z,0
2023-02-09T03:29:08.933Z,0
2023-02-09T03:29:49.412Z,0
2023-02-09T03:30:30.024Z,0
2023-02-09T03:31:10.540Z,0
2023-02-09T03:31:50.994Z,0
2023-02-09T03:32:31.396Z,0
2023-02-09T03:33:11.870Z,0
2023-02-09T03:33:52.343Z,0
2023-02-09T03:41:17.687Z,0
2023-02-09T03:41:58.261Z,0
2023-02-09T03:42:38.733Z,0
2023-02-09T03:43:19.215Z,0
2023-02-09T03:43:59.753Z,0
2023-02-09T03:44:40.169Z,0
2023-02-09T03:45:20.660Z,0
2023-02-09T03:46:01.131Z,0
2023-02-09T03:46:41.685Z,0
2023-02-09T03:47:22.116Z,0
2023-02-09T03:54:47.558Z,0
2023-02-09T03:55:28.096Z,0
2023-02-09T03:56:08.595Z,0
2023-02-09T03:56:49.097Z,0
2023-02-09T03:58:10.060Z,0
2023-02-09T03:58:50.539Z,0
2023-02-09T03:59:31.016Z,0
2023-02-09T04:00:11.510Z,0
2023-02-09T04:00:52.039Z,0
2023-02-09T04:08:17.495Z,0
2023-02-09T04:08:57.964Z,0
2023-02-09T04:09:38.460Z,0
2023-02-09T04:10:18.963Z,0
2023-02-09T04:10:59.474Z,0
2023-02-09T04:11:40.001Z,0
2023-02-09T04:12:20.436Z,0
2023-02-09T04:13:00.937Z,0
2023-02-09T04:13:41.428Z,0
2023-02-09T04:14:21.912Z,0
2023-02-09T04:22:27.784Z,0
2023-02-09T04:23:08.274Z,0
2023-02-09T04:23:49.267Z,0
2023-02-09T04:24:29.752Z,0
2023-02-09T04:25:10.267Z,0
2023-02-09T04:25:50.714Z,0
2023-02-09T04:26:31.158Z,0
2023-02-09T04:27:11.667Z,0
2023-02-09T04:27:52.170Z,0
2023-02-09T04:35:17.578Z,0
2023-02-09T04:35:58.067Z,0
2023-02-09T04:36:38.534Z,0
2023-02-09T04:37:19.050Z,0
2023-02-09T04:37:59.578Z,0
2023-02-09T04:38:40.021Z,0
2023-02-09T04:39:20.470Z,0
2023-02-09T04:40:00.961Z,0
2023-02-09T04:40:41.474Z,0
2023-02-09T04:41:21.906Z,0
2023-02-09T04:48:47.424Z,0
2023-02-09T04:49:27.900Z,0
2023-02-09T04:50:08.399Z,0
2023-02-09T04:50:48.900Z,0
2023-02-09T04:51:29.384Z,0
2023-02-09T04:52:09.860Z,0
2023-02-09T04:52:50.392Z,0
2023-02-09T04:53:30.955Z,0
2023-02-09T04:54:11.329Z,0
2023-02-09T04:54:51.919Z,0
2023-02-09T04:55:32.364Z,0
2023-02-09T05:02:17.372Z,0
2023-02-09T05:02:57.897Z,0
2023-02-09T05:03:38.382Z,0
2023-02-09T05:04:18.849Z,0
2023-02-09T05:04:59.379Z,0
2023-02-09T05:05:39.845Z,0
2023-02-09T05:06:20.363Z,0
2023-02-09T05:07:00.867Z,0
2023-02-09T05:07:41.366Z,0
2023-02-09T05:08:21.883Z,0
2023-02-09T05:16:19.045Z,0
2023-02-09T05:16:59.546Z,0
2023-02-09T05:17:39.934Z,0
2023-02-09T05:23:03.778Z,0
2023-02-09T05:23:44.287Z,0
2023-02-09T05:24:24.813Z,0
2023-02-09T05:25:05.335Z,0
2023-02-09T05:25:45.843Z,0
2023-02-09T05:26:26.327Z,0
2023-02-09T05:27:06.852Z,0
2023-02-09T05:27:48.128Z,0
2023-02-09T05:28:28.632Z,0
2023-02-09T05:35:54.024Z,0
2023-02-09T05:36:34.507Z,0
2023-02-09T05:37:15.045Z,0
2023-02-09T05:37:55.489Z,0
2023-02-09T05:38:35.968Z,0
2023-02-09T05:39:16.425Z,0
2023-02-09T05:39:56.977Z,0
2023-02-09T05:40:37.451Z,0
2023-02-09T05:41:17.942Z,0
2023-02-09T05:41:58.426Z,0
2023-02-09T05:48:43.619Z,0
2023-02-09T05:49:24.148Z,0
2023-02-09T05:50:04.657Z,0
2023-02-09T05:50:45.430Z,0
2023-02-09T05:51:25.613Z,0
2023-02-09T05:52:06.139Z,0
2023-02-09T05:52:46.630Z,0
2023-02-09T06:35:30.864Z,0
2023-02-09T06:36:12.016Z,0
2023-02-09T06:36:52.525Z,0
2023-02-09T06:38:14.347Z,0
2023-02-09T06:38:55.288Z,0
2023-02-09T06:39:35.916Z,0
2023-02-09T06:40:16.474Z,0
2023-02-09T06:40:57.009Z,0
2023-02-09T06:41:37.642Z,0
2023-02-09T06:42:18.062Z,0
2023-02-09T06:42:58.542Z,0
2023-02-09T06:47:44.059Z,0
2023-02-09T06:48:24.770Z,0
2023-02-09T06:49:05.236Z,0
2023-02-09T06:49:46.036Z,0
2023-02-09T06:50:26.630Z,0
2023-02-09T06:51:07.181Z,0
2023-02-09T06:51:47.646Z,0
2023-02-09T06:52:28.140Z,0
2023-02-09T06:58:34.075Z,0
2023-02-09T06:59:14.595Z,0
2023-02-09T06:59:55.138Z,5
2023-02-09T07:00:35.812Z,5
2023-02-09T07:01:16.414Z,5
2023-02-09T07:01:57.049Z,5
2023-02-09T07:02:37.510Z,5
2023-02-09T07:03:18.649Z,5
2023-02-09T07:09:24.069Z,15
2023-02-09T07:10:04.670Z,15
2023-02-09T07:10:45.395Z,15
2023-02-09T07:11:25.825Z,15
2023-02-09T07:12:06.735Z,15
2023-02-09T07:12:47.275Z,15
2023-02-09T07:13:27.821Z,15
2023-02-09T07:14:08.547Z,15
2023-02-09T07:22:06.623Z,25
2023-02-09T07:22:47.053Z,25
2023-02-09T07:23:27.602Z,25
2023-02-09T07:28:11.393Z,30
2023-02-09T07:28:51.852Z,30
2023-02-09T07:29:32.321Z,30
2023-02-09T07:30:13.000Z,30
2023-02-09T07:30:53.557Z,30
2023-02-09T07:31:34.083Z,30
2023-02-09T07:32:14.533Z,30
2023-02-09T07:32:55.178Z,25
2023-02-09T07:33:35.718Z,30
2023-02-09T07:34:16.178Z,30
2023-02-09T07:39:41.416Z,30
2023-02-09T07:40:21.892Z,30
2023-02-09T07:41:02.501Z,30
2023-02-09T07:41:43.002Z,30
2023-02-09T07:42:23.613Z,30
2023-02-09T07:43:04.108Z,35
2023-02-09T07:43:44.662Z,35
2023-02-09T07:44:25.266Z,35
2023-02-09T07:45:05.906Z,35
2023-02-09T07:51:51.618Z,35
2023-02-09T07:52:32.183Z,35
2023-02-09T07:53:12.732Z,35
2023-02-09T07:53:53.294Z,35
2023-02-09T07:54:34.210Z,35
2023-02-09T07:55:14.827Z,35
2023-02-09T07:55:55.312Z,35
2023-02-09T07:56:35.806Z,35
2023-02-09T08:03:21.668Z,35
2023-02-09T08:04:02.183Z,35
2023-02-09T08:04:42.745Z,35
2023-02-09T08:05:23.335Z,30
2023-02-09T08:06:03.911Z,30
2023-02-09T08:06:44.446Z,30
2023-02-09T08:10:27.000Z,35
2023-02-09T08:11:08.587Z,35
2023-02-09T08:11:49.620Z,35
2023-02-09T08:12:30.732Z,35
2023-02-09T08:13:11.949Z,35
2023-02-09T08:13:52.979Z,35
2023-02-09T08:16:00.372Z,35
2023-02-09T08:16:41.332Z,35
2023-02-09T08:17:23.194Z,35
2023-02-09T08:20:48.961Z,35
2023-02-09T08:21:31.152Z,35
2023-02-09T08:22:12.417Z,35
2023-02-09T08:25:33.136Z,35
2023-02-09T08:26:13.664Z,35
2023-02-09T08:26:54.137Z,35
2023-02-09T08:27:34.866Z,35
2023-02-09T08:32:18.844Z,35
2023-02-09T08:32:59.157Z,35
2023-02-09T08:33:39.808Z,35
2023-02-09T08:34:20.598Z,35
2023-02-09T08:35:01.245Z,35
2023-02-09T08:35:41.791Z,35
2023-02-09T08:36:23.047Z,35
2023-02-09T08:42:21.822Z,40
2023-02-09T08:43:02.118Z,35
2023-02-09T08:43:45.315Z,35
2023-02-09T08:44:25.236Z,40
2023-02-09T08:45:05.849Z,40
2023-02-09T08:45:47.212Z,40
2023-02-09T08:46:28.433Z,40
2023-02-09T08:49:15.802Z,35
2023-02-09T08:52:58.246Z,40
2023-02-09T08:55:19.505Z,35
2023-02-09T08:56:00.423Z,35
2023-02-09T08:56:41.083Z,35
2023-02-09T08:58:44.038Z,35
2023-02-09T08:59:24.664Z,35
2023-02-09T09:00:05.307Z,35
2023-02-09T09:00:45.876Z,40
2023-02-09T09:01:26.555Z,40
2023-02-09T09:02:07.240Z,40
2023-02-09T09:02:47.664Z,40
2023-02-09T09:03:28.252Z,40
2023-02-09T09:04:09.700Z,40
2023-02-09T09:08:14.416Z,40
2023-02-09T09:08:54.924Z,40
2023-02-09T09:09:35.652Z,40
2023-02-09T09:10:16.364Z,40
2023-02-09T09:10:57.049Z,40
2023-02-09T09:11:37.923Z,40
2023-02-09T09:12:18.472Z,40
2023-02-09T09:16:14.491Z,40
2023-02-09T09:16:54.767Z,40
2023-02-09T09:17:35.367Z,40
2023-02-09T09:20:19.208Z,40
2023-02-09T09:20:59.873Z,40
2023-02-09T09:21:40.655Z,40
2023-02-09T09:22:20.902Z,40
2023-02-09T09:23:01.530Z,40
2023-02-09T09:23:42.437Z,40
2023-02-09T09:29:25.803Z,40
2023-02-09T09:32:00.243Z,40
2023-02-09T09:32:40.665Z,40
2023-02-09T09:33:21.321Z,40
2023-02-09T09:37:26.727Z,35
2023-02-09T09:38:07.376Z,35
2023-02-09T09:38:48.181Z,35
2023-02-09T09:39:29.712Z,35
2023-02-09T09:44:52.646Z,40
2023-02-09T09:45:33.007Z,40
2023-02-09T09:46:13.668Z,40
2023-02-09T09:48:18.182Z,40
2023-02-09T09:48:58.729Z,40
2023-02-09T09:49:40.901Z,40
2023-02-09T09:53:46.787Z,40
2023-02-09T09:54:27.281Z,40
2023-02-09T09:55:07.947Z,40
2023-02-09T09:56:30.543Z,40
2023-02-09T10:01:16.551Z,40
2023-02-09T10:01:57.244Z,40
2023-02-09T10:02:37.967Z,40
2023-02-09T10:03:18.529Z,40
2023-02-09T10:04:00.376Z,40
2023-02-09T10:07:27.760Z,40
2023-02-09T10:08:08.339Z,40
2023-02-09T10:08:48.851Z,40
2023-02-09T10:12:44.029Z,40
2023-02-09T10:13:24.759Z,40
2023-02-09T10:14:05.417Z,40
2023-02-09T10:14:46.004Z,40
2023-02-09T10:16:07.718Z,35
2023-02-09T10:16:49.005Z,40
2023-02-09T10:17:29.549Z,40
2023-02-09T10:18:10.739Z,40
2023-02-09T10:18:52.013Z,40
2023-02-09T10:19:40.517Z,40
2023-02-09T10:25:58.533Z,40
2023-02-09T10:26:40.496Z,40
2023-02-09T10:27:20.172Z,40
2023-02-09T10:30:43.096Z,40
2023-02-09T10:31:23.598Z,40
2023-02-09T10:32:04.297Z,40
2023-02-09T10:32:45.005Z,40
2023-02-09T10:33:25.736Z,40
2023-02-09T10:34:06.657Z,40
2023-02-09T10:34:47.472Z,40
2023-02-09T10:37:33.686Z,40
2023-02-09T10:38:14.541Z,40
2023-02-09T10:38:55.367Z,40
2023-02-09T10:39:35.992Z,40
2023-02-09T10:40:16.670Z,40
2023-02-09T10:40:57.821Z,40
2023-02-09T10:45:05.389Z,40
2023-02-09T10:45:45.834Z,40
2023-02-09T10:48:33.990Z,40
2023-02-09T10:49:16.158Z,40
2023-02-09T10:49:56.848Z,40
2023-02-09T11:00:29.137Z,35
2023-02-09T11:01:09.749Z,35
2023-02-09T11:01:51.480Z,35
2023-02-09T11:02:31.393Z,35
2023-02-09T11:03:13.112Z,35
2023-02-09T11:03:53.126Z,35
2023-02-09T11:08:00.874Z,35
2023-02-09T11:08:40.663Z,35
2023-02-09T11:09:22.508Z,35
2023-02-09T11:13:17.872Z,35
2023-02-09T11:13:58.717Z,40
2023-02-09T11:14:39.512Z,40
2023-02-09T11:15:20.092Z,40
2023-02-09T11:16:42.796Z,35
2023-02-09T11:17:23.411Z,35
2023-02-09T11:21:04.887Z,35
2023-02-09T11:21:45.748Z,35
2023-02-09T11:22:28.787Z,35
2023-02-09T11:23:06.644Z,35
2023-02-09T11:25:08.639Z,35
2023-02-09T11:25:49.123Z,35
2023-02-09T11:26:29.765Z,35
2023-02-09T11:27:10.370Z,35
2023-02-09T11:27:50.962Z,35
2023-02-09T11:28:31.567Z,35
2023-02-09T11:33:20.146Z,35
2023-02-09T11:33:59.694Z,35
2023-02-09T11:34:40.524Z,35
2023-02-09T11:35:21.421Z,35
2023-02-09T11:36:02.064Z,35
2023-02-09T11:36:42.764Z,35
2023-02-09T11:49:57.709Z,35
2023-02-09T11:50:40.119Z,35
2023-02-09T11:51:21.826Z,35
2023-02-09T11:52:04.001Z,35
2023-02-09T11:53:29.525Z,35
2023-02-09T11:54:15.895Z,35
2023-02-09T12:34:17.663Z,40
2023-02-09T12:34:57.896Z,35
2023-02-09T12:35:38.428Z,35
2023-02-09T12:37:42.176Z,35
2023-02-09T12:38:22.703Z,35
2023-02-09T12:42:02.601Z,35
2023-02-09T12:42:43.189Z,35
2023-02-09T12:43:23.640Z,35
2023-02-09T12:46:47.888Z,35
2023-02-09T12:47:28.405Z,35
2023-02-09T12:48:08.954Z,35
2023-02-09T12:48:49.738Z,35
2023-02-09T12:49:30.571Z,35
2023-02-09T12:50:11.678Z,35
2023-02-09T12:53:37.638Z,35
2023-02-09T12:54:17.913Z,35
2023-02-09T12:54:58.903Z,35
2023-02-09T12:55:39.672Z,35
2023-02-09T12:57:03.007Z,35
2023-02-09T13:00:27.146Z,35
2023-02-09T13:01:08.104Z,35
2023-02-09T13:01:49.157Z,35
2023-02-09T13:02:29.954Z,35
2023-02-09T13:03:10.610Z,35
2023-02-09T13:07:56.853Z,30
2023-02-09T13:08:42.698Z,30
2023-02-09T13:16:01.057Z,35
2023-02-09T13:16:43.042Z,35
2023-02-09T13:17:24.146Z,35
2023-02-09T13:18:04.697Z,30
2023-02-09T13:18:45.912Z,30
2023-02-09T13:19:42.476Z,30
2023-02-09T13:23:25.536Z,30
2023-02-09T13:24:06.075Z,30
2023-02-09T13:24:46.742Z,30
2023-02-09T13:28:13.712Z,30
2023-02-09T13:28:54.581Z,30
2023-02-09T13:33:52.718Z,30
2023-02-09T13:34:33.754Z,30
2023-02-09T13:35:15.045Z,30
2023-02-09T13:35:56.728Z,30
2023-02-09T13:36:39.009Z,30
2023-02-09T13:37:57.092Z,30
2023-02-09T13:38:38.599Z,30
2023-02-09T13:39:19.902Z,30
2023-02-09T13:40:03.248Z,30
2023-02-09T13:42:08.521Z,30
2023-02-09T13:42:49.203Z,30
2023-02-09T13:43:30.659Z,30
2023-02-09T13:47:37.160Z,30
2023-02-09T13:48:18.506Z,30
2023-02-09T13:49:02.152Z,30
2023-02-09T13:51:46.217Z,30
2023-02-09T13:52:27.421Z,30
2023-02-09T13:53:08.436Z,30
2023-02-09T13:53:50.541Z,30
2023-02-09T13:55:56.709Z,30
2023-02-09T13:56:38.203Z,30
2023-02-09T13:57:19.178Z,25
2023-02-09T13:58:00.375Z,25
2023-02-09T14:09:11.625Z,25
2023-02-09T14:09:52.032Z,25
2023-02-09T14:10:32.591Z,25
2023-02-09T14:11:13.897Z,25
2023-02-09T14:13:15.133Z,25
2023-02-09T14:13:55.640Z,25
2023-02-09T14:14:36.291Z,25
2023-02-09T14:15:16.967Z,25
2023-02-09T14:15:57.507Z,25
2023-02-09T14:16:51.541Z,25
2023-02-09T14:17:25.058Z,25
2023-02-09T14:17:59.366Z,25
2023-02-09T14:24:04.697Z,25
2023-02-09T14:24:45.254Z,25
2023-02-09T14:25:26.392Z,25
2023-02-09T14:26:06.810Z,25
2023-02-09T14:26:47.380Z,25
2023-02-09T14:27:27.880Z,25
2023-02-09T14:28:08.457Z,25
2023-02-09T14:28:48.955Z,25
2023-02-09T14:29:29.544Z,25
2023-02-09T14:33:35.179Z,25
2023-02-09T14:37:14.603Z,20
2023-02-09T14:37:55.190Z,20
2023-02-09T14:38:35.829Z,20
2023-02-09T14:39:16.324Z,20
2023-02-09T14:41:58.681Z,20
2023-02-09T14:42:39.384Z,20
2023-02-09T14:43:19.923Z,20
2023-02-09T14:44:00.590Z,20
2023-02-09T14:44:41.142Z,20
2023-02-09T14:45:21.634Z,20
2023-02-09T14:46:02.307Z,20
2023-02-09T14:52:10.089Z,20
2023-02-09T14:52:49.310Z,20
2023-02-09T14:53:29.815Z,20
2023-02-09T14:57:11.520Z,20
2023-02-09T14:57:51.379Z,20
2023-02-09T14:58:31.978Z,20
2023-02-09T15:01:55.560Z,20
2023-02-09T15:02:36.157Z,20
2023-02-09T15:03:17.325Z,20
2023-02-09T15:03:57.817Z,20
2023-02-09T15:04:38.364Z,20
2023-02-09T15:05:18.900Z,20
2023-02-09T15:05:59.622Z,15
2023-02-09T15:09:14.103Z,20
2023-02-09T15:09:54.682Z,20
2023-02-09T15:10:35.183Z,20
2023-02-09T15:13:18.968Z,20
2023-02-09T15:13:59.863Z,20
2023-02-09T15:14:40.556Z,15
2023-02-09T15:15:21.097Z,15
2023-02-09T15:16:01.750Z,15
2023-02-09T15:16:42.264Z,15
2023-02-09T15:17:22.896Z,15
2023-02-09T15:18:03.353Z,15
2023-02-09T15:24:48.799Z,10
2023-02-09T15:25:29.386Z,10
2023-02-09T15:26:09.897Z,10
2023-02-09T15:26:51.188Z,10
2023-02-09T15:27:31.725Z,10
2023-02-09T15:28:12.406Z,10
2023-02-09T15:28:52.867Z,10
2023-02-09T15:29:33.397Z,10
2023-02-09T15:35:38.422Z,10
2023-02-09T15:36:18.877Z,10
2023-02-09T15:36:59.438Z,10
2023-02-09T15:37:39.968Z,10
2023-02-09T15:38:20.543Z,10
2023-02-09T15:39:01.083Z,10
2023-02-09T15:39:42.520Z,10
2023-02-09T15:40:23.161Z,10
2023-02-09T15:45:48.479Z,5
2023-02-09T15:46:29.076Z,5
2023-02-09T15:47:09.525Z,5
2023-02-09T15:47:50.258Z,5
2023-02-09T15:48:30.761Z,5
2023-02-09T15:49:11.407Z,5
2023-02-09T15:49:51.946Z,5
2023-02-09T15:50:33.328Z,5
2023-02-09T15:55:18.913Z,5
2023-02-09T15:55:59.638Z,5
2023-02-09T15:56:40.202Z,5
2023-02-09T15:57:20.781Z,5
2023-02-09T15:58:01.383Z,5
2023-02-09T16:01:36.438Z,0
2023-02-09T16:02:16.799Z,0
2023-02-09T16:02:57.342Z,0
2023-02-09T16:03:37.851Z,0
2023-02-09T16:07:01.730Z,0
2023-02-09T16:07:42.406Z,0
2023-02-09T16:08:22.964Z,0
2023-02-09T16:09:03.555Z,0
2023-02-09T16:09:44.016Z,0
2023-02-09T16:10:24.541Z,0
2023-02-09T16:11:05.059Z,0
2023-02-09T16:17:10.802Z,0
2023-02-09T16:17:51.452Z,0
2023-02-09T16:18:32.044Z,0
2023-02-09T16:22:02.606Z,0
2023-02-09T16:22:43.200Z,0
2023-02-09T16:23:23.759Z,0
2023-02-09T16:26:47.884Z,0
2023-02-09T16:27:28.474Z,0
2023-02-09T16:28:09.006Z,0
2023-02-09T16:28:49.506Z,0
2023-02-09T16:29:30.096Z,0
2023-02-09T16:30:10.585Z,0
2023-02-09T16:30:51.100Z,0
2023-02-09T16:31:31.779Z,0
2023-02-09T16:38:17.013Z,0
2023-02-09T16:38:57.510Z,0
2023-02-09T16:39:38.068Z,0
2023-02-09T16:40:18.570Z,0
2023-02-09T16:40:59.074Z,0
2023-02-09T16:41:39.575Z,0
2023-02-09T16:42:20.150Z,0
2023-02-09T16:43:00.677Z,0
2023-02-09T16:43:41.247Z,0
2023-02-09T16:44:21.743Z,0
2023-02-09T16:51:07.231Z,0
2023-02-09T16:51:47.788Z,0
2023-02-09T16:52:28.400Z,0
2023-02-09T16:53:08.958Z,0
2023-02-09T16:53:49.512Z,0
2023-02-09T16:54:30.065Z,0
2023-02-09T16:55:10.622Z,0
2023-02-09T16:55:51.456Z,0
2023-02-09T16:56:31.751Z,0
2023-02-09T17:03:17.094Z,0
2023-02-09T17:03:57.690Z,0
2023-02-09T17:04:38.206Z,0
2023-02-09T17:05:18.767Z,0
2023-02-09T17:05:59.245Z,0
2023-02-09T17:06:39.852Z,0
2023-02-09T17:07:20.417Z,0
2023-02-09T17:08:01.307Z,0
2023-02-09T17:08:41.815Z,0
2023-02-09T17:13:27.529Z,0
2023-02-09T17:14:08.099Z,0
2023-02-09T17:14:48.663Z,0
2023-02-09T17:15:31.379Z,0
2023-02-09T17:16:09.844Z,0
2023-02-09T17:16:57.261Z,0
2023-02-09T17:18:19.187Z,0
2023-02-09T17:18:59.825Z,0
2023-02-09T17:19:47.768Z,0
2023-02-09T17:20:21.030Z,0
2023-02-09T17:21:02.326Z,0
2023-02-09T17:27:47.495Z,0
2023-02-09T17:28:28.171Z,0
2023-02-09T17:29:08.649Z,0
2023-02-09T17:29:49.229Z,0
2023-02-09T17:30:29.811Z,0
2023-02-09T17:31:10.492Z,0
2023-02-09T17:31:53.421Z,0
2023-02-09T17:32:31.427Z,0
2023-02-09T17:33:11.961Z,0
2023-02-09T17:39:57.428Z,0
2023-02-09T17:40:37.880Z,0
2023-02-09T17:41:18.398Z,0
2023-02-09T17:41:58.945Z,0
2023-02-09T17:42:39.461Z,0
2023-02-09T17:43:20.821Z,0
2023-02-09T17:44:07.880Z,0
2023-02-09T17:44:46.247Z,0
2023-02-09T17:45:21.871Z,0
2023-02-09T17:50:47.219Z,0
2023-02-09T17:51:27.715Z,0
2023-02-09T17:52:08.291Z,0
2023-02-09T17:52:48.812Z,0
2023-02-09T17:53:29.335Z,0
2023-02-09T17:54:09.858Z,0
2023-02-09T17:54:50.377Z,0
2023-02-09T18:37:22.667Z,0
2023-02-09T18:38:03.184Z,0
2023-02-09T18:38:43.670Z,0
2023-02-09T18:43:27.854Z,0
2023-02-09T18:44:08.382Z,0
2023-02-09T18:44:48.921Z,0
2023-02-09T18:45:29.407Z,0
2023-02-09T18:46:09.990Z,0
2023-02-09T18:46:50.443Z,0
2023-02-09T18:47:30.936Z,0
2023-02-09T18:48:11.472Z,0
2023-02-09T18:48:51.963Z,0
2023-02-09T18:53:26.876Z,0
2023-02-09T18:54:07.235Z,0
2023-02-09T18:54:47.724Z,0
2023-02-09T18:59:31.455Z,0
2023-02-09T19:00:11.979Z,0
2023-02-09T19:00:52.488Z,0
2023-02-09T19:01:33.137Z,0
2023-02-09T19:02:13.483Z,0
2023-02-09T19:02:54.016Z,0
2023-02-09T19:03:34.531Z,0
2023-02-09T19:04:15.127Z,0
2023-02-09T19:04:55.642Z,0
2023-02-09T19:05:36.200Z,0
2023-02-09T19:12:21.395Z,0
2023-02-09T19:13:01.997Z,0
2023-02-09T19:13:42.530Z,0
2023-02-09T19:14:23.025Z,0
2023-02-09T19:15:03.516Z,0
2023-02-09T19:15:44.026Z,0
2023-02-09T19:16:24.610Z,0
2023-02-09T19:17:05.107Z,0
2023-02-09T19:23:11.277Z,0
2023-02-09T19:23:52.081Z,0
2023-02-09T19:24:32.648Z,0
2023-02-09T19:25:13.170Z,0
2023-02-09T19:25:53.819Z,0
2023-02-09T19:26:34.297Z,0
2023-02-09T19:30:14.227Z,0
2023-02-09T19:30:53.922Z,0
2023-02-09T19:31:34.441Z,0
2023-02-09T19:36:18.066Z,0
2023-02-09T19:36:58.659Z,0
2023-02-09T19:37:39.244Z,0
2023-02-09T19:38:19.856Z,0
2023-02-09T19:39:00.362Z,0
2023-02-09T19:39:41.051Z,0
2023-02-09T19:40:21.856Z,0
2023-02-09T19:41:10.275Z,0
2023-02-09T19:47:08.499Z,0
2023-02-09T19:47:49.137Z,0
2023-02-09T19:48:29.607Z,0
2023-02-09T19:49:10.084Z,0
2023-02-09T19:49:50.584Z,0
2023-02-09T19:50:31.066Z,0
2023-02-09T19:51:11.560Z,0
2023-02-09T19:51:52.069Z,0
2023-02-09T19:52:32.628Z,0
2023-02-09T19:58:38.057Z,0
2023-02-09T19:59:18.550Z,0
2023-02-09T19:59:59.020Z,0
2023-02-09T20:00:39.739Z,0
2023-02-09T20:01:20.305Z,0
2023-02-09T20:02:00.900Z,0
2023-02-09T20:02:41.508Z,0
2023-02-09T20:03:21.895Z,0
2023-02-09T20:04:02.563Z,0
2023-02-09T20:10:48.443Z,0
2023-02-09T20:11:28.509Z,0
2023-02-09T20:12:09.035Z,0
2023-02-09T20:12:49.459Z,0
2023-02-09T20:13:30.018Z,0
2023-02-09T20:14:10.456Z,0
2023-02-09T20:14:51.026Z,0
2023-02-09T20:15:31.497Z,0
2023-02-09T20:16:12.072Z,0
2023-02-09T20:16:52.552Z,0
2023-02-09T20:17:33.007Z,0
2023-02-09T20:24:18.174Z,0
2023-02-09T20:24:58.764Z,0
2023-02-09T20:25:39.287Z,0
2023-02-09T20:26:19.894Z,0
2023-02-09T20:27:00.359Z,0
2023-02-09T20:27:40.920Z,0
2023-02-09T20:28:21.386Z,0
2023-02-09T20:29:02.069Z,0
2023-02-09T20:29:42.604Z,0
2023-02-09T20:35:48.092Z,0
2023-02-09T20:36:28.583Z,0
2023-02-09T20:37:09.131Z,0
2023-02-09T20:37:49.843Z,0
2023-02-09T20:38:30.215Z,0
2023-02-09T20:39:10.752Z,0
2023-02-09T20:39:51.258Z,0
2023-02-09T20:40:31.759Z,0
2023-02-09T20:41:12.227Z,0
2023-02-09T20:41:52.756Z,0
2023-02-09T20:49:18.413Z,0
2023-02-09T20:49:58.932Z,0
2023-02-09T20:50:39.427Z,0
2023-02-09T20:51:19.920Z,0
2023-02-09T20:52:00.465Z,0
2023-02-09T20:52:40.950Z,0
2023-02-09T20:53:21.418Z,0
2023-02-09T20:54:01.904Z,0
2023-02-09T20:54:42.404Z,0
2023-02-09T20:55:22.920Z,0
2023-02-09T21:02:08.065Z,0
2023-02-09T21:02:48.574Z,0
2023-02-09T21:03:28.964Z,0
2023-02-09T21:04:09.453Z,0
2023-02-09T21:04:49.964Z,0
2023-02-09T21:05:30.427Z,0
2023-02-09T21:06:10.930Z,0
2023-02-09T21:06:51.441Z,0
2023-02-09T21:07:31.948Z,0
2023-02-09T21:08:12.418Z,0
2023-02-09T21:08:52.930Z,0
2023-02-09T21:15:38.042Z,0
2023-02-09T21:16:18.523Z,0
2023-02-09T21:16:59.079Z,0
2023-02-09T21:17:39.521Z,0
2023-02-09T21:18:20.047Z,0
2023-02-09T21:19:00.533Z,0
2023-02-09T21:19:41.249Z,0
2023-02-09T21:20:21.716Z,0
2023-02-09T21:21:02.358Z,0
2023-02-09T21:21:42.779Z,0
2023-02-09T21:29:08.383Z,0
2023-02-09T21:29:48.877Z,0
2023-02-09T21:30:29.378Z,0
2023-02-09T21:31:09.848Z,0
2023-02-09T21:31:50.346Z,0
2023-02-09T21:32:30.901Z,0
2023-02-09T21:33:11.502Z,0
2023-02-09T21:33:51.918Z,0
2023-02-09T21:34:32.572Z,0
2023-02-09T21:41:58.314Z,0
2023-02-09T21:42:38.835Z,0
2023-02-09T21:43:19.339Z,0
2023-02-09T21:43:59.828Z,0
2023-02-09T21:44:40.323Z,0
2023-02-09T21:46:01.775Z,0
2023-02-09T21:46:42.217Z,0
2023-02-09T21:47:22.743Z,0
2023-02-09T21:54:48.748Z,0
2023-02-09T21:55:29.247Z,0
2023-02-09T21:56:09.868Z,0
2023-02-09T21:56:50.380Z,0
2023-02-09T21:57:30.812Z,0
2023-02-09T21:58:51.833Z,0
2023-02-09T21:59:32.345Z,0
2023-02-09T22:00:12.785Z,0
2023-02-09T22:06:18.213Z,0
2023-02-09T22:06:57.937Z,0
2023-02-09T22:07:38.552Z,0
2023-02-09T22:08:19.048Z,0
2023-02-09T22:09:00.292Z,0
2023-02-09T22:09:40.722Z,0
2023-02-09T22:10:21.229Z,0
2023-02-09T22:11:01.762Z,0
2023-02-09T22:11:42.216Z,0
2023-02-09T22:12:22.697Z,0
2023-02-09T22:19:48.250Z,0
2023-02-09T22:20:28.734Z,0
2023-02-09T22:21:09.254Z,0
2023-02-09T22:21:49.707Z,0
2023-02-09T22:22:30.184Z,0
2023-02-09T22:23:10.670Z,0
2023-02-09T22:23:51.214Z,0
2023-02-09T22:24:31.720Z,0
2023-02-09T22:25:12.196Z,0
2023-02-09T22:33:59.116Z,0
2023-02-09T22:34:39.636Z,0
2023-02-09T22:35:20.110Z,0
2023-02-09T22:36:00.617Z,0
2023-02-09T22:36:41.133Z,0
2023-02-09T22:37:21.781Z,0
2023-02-09T22:38:02.270Z,0
2023-02-09T22:38:42.779Z,0
2023-02-09T22:46:08.414Z,0
2023-02-09T22:46:48.823Z,0
2023-02-09T22:47:29.333Z,0